KBYG/BYG METAR and TAF weather

Enter ICAO airport designator
Station Type Date Time Source
KBYG METAR 2019/12/08 18:53 UTC NOAA

KBYG 081853Z AUTO 36008KT 10SM BKN100 OVC120 04/M03 A2958 RMK AO2 SLP020 T00441033


Station Type Date Time Source
KBYG Decoded METAR 2019/12/08 18:53 UTC NOAA

BUFFALO JOHNSON COUNTY AIRPORT , WY, United States (KBYG) 44-23N 106-43W 1497M
Dec 08, 2019 - 01:53 PM EST / 2019.12.08 1853 UTC
Wind: from the N (360 degrees) at 9 MPH (8 KT):0
Visibility: 10 mile(s):0
Sky conditions: overcast
Temperature: 39.9 F (4.4 C)
Dew Point: 26.1 F (-3.3 C)
Relative Humidity: 57%
Pressure (altimeter): 29.58 in. Hg (1001 hPa)
ob: KBYG 081853Z AUTO 36008KT 10SM BKN100 OVC120 04/M03 A2958 RMK AO2 SLP020 T00441033
cycle: 19

Station Type Date Time Source
KBYG TAF UTC NOAA

Error!

Example: see airport list